Time;durP1;ratioP1;P1;durP2;ratioP2;P2;SDS_P1;SDS_P2;PMS_P1;PMS_P2;Temp;Humidity;BMP_temperature;BMP_pressure;BME280_temperature;BME280_humidity;BME280_pressure;Samples;Min_cycle;Max_cycle;Signal;HPM_P1;HPM_P2
2021/07/21 00:34:46;;;;;;;5.03;2.00;;;;;;;22.53;47.30;101690.28;1215665;23;21493;-84
2021/07/21 01:02:21;;;;;;;6.15;2.30;;;;;;;22.07;48.21;101686.66;1208054;23;21537;-84
2021/07/21 01:08:10;;;;;;;6.22;2.47;;;;;;;21.98;47.91;101680.03;1211117;23;21445;-84
2021/07/21 01:35:53;;;;;;;7.10;2.58;;;;;;;21.59;49.37;101685.69;1217210;23;21487;-84
2021/07/21 01:51:22;;;;;;;4.90;2.05;;;;;;;21.39;49.97;101688.53;1216581;22;21452;-84
2021/07/21 01:57:16;;;;;;;6.43;2.10;;;;;;;21.30;49.47;101679.28;1215184;23;21492;-84
2021/07/21 02:09:10;;;;;;;5.65;2.30;;;;;;;21.09;49.69;101675.91;1215252;23;21479;-84
2021/07/21 02:30:48;;;;;;;5.55;2.30;;;;;;;20.79;50.08;101677.44;1218566;22;22097;-84
2021/07/21 02:33:47;;;;;;;7.07;2.83;;;;;;;20.76;51.63;101683.75;1131403;23;20236;-83
2021/07/21 03:00:56;;;;;;;8.05;2.60;;;;;;;20.48;51.21;101686.91;1215150;22;21395;-83
2021/07/21 03:21:51;;;;;;;7.93;3.20;;;;;;;20.08;52.06;101680.81;1215783;22;21955;-83
2021/07/21 03:33:51;;;;;;;7.05;2.80;;;;;;;19.96;52.03;101682.22;1218369;23;21451;-83
2021/07/21 03:39:38;;;;;;;8.88;3.92;;;;;;;19.92;52.67;101680.66;1215231;23;21407;-84
2021/07/21 04:07:42;;;;;;;6.35;2.90;;;;;;;19.74;52.79;101692.09;1219270;22;21474;-84
2021/07/21 04:25:36;;;;;;;7.88;3.08;;;;;;;19.59;53.11;101703.34;1215648;22;21471;-84
2021/07/21 04:31:26;;;;;;;9.73;2.47;;;;;;;19.55;53.17;101701.75;1215702;22;21435;-84
2021/07/21 04:34:28;;;;;;;5.85;2.83;;;;;;;19.52;54.92;101701.91;1137095;22;20158;-83
2021/07/21 04:43:23;;;;;;;6.63;2.85;;;;;;;19.49;53.42;101710.00;1219068;23;21917;-83
2021/07/21 05:06:44;;;;;;;8.70;3.17;;;;;;;19.43;55.00;101706.69;1217569;22;21567;-83
2021/07/21 05:12:30;;;;;;;8.45;3.63;;;;;;;19.43;55.37;101709.31;1218296;22;21905;-83
2021/07/21 05:35:34;;;;;;;8.55;3.08;;;;;;;19.52;56.07;101725.75;1212746;22;21993;-83
2021/07/21 05:53:57;;;;;;;11.57;5.65;;;;;;;19.66;56.58;101739.28;1215650;22;21515;-83
2021/07/21 06:14:56;;;;;;;11.90;5.05;;;;;;;20.01;56.75;101752.75;1208909;23;21516;-84
2021/07/21 06:23:43;;;;;;;11.40;5.43;;;;;;;20.14;57.29;101765.38;1212129;23;21458;-84
2021/07/21 06:35:52;;;;;;;10.93;4.85;;;;;;;20.39;57.61;101767.75;1211018;23;21485;-84
2021/07/21 06:41:43;;;;;;;8.43;3.65;;;;;;;20.51;57.92;101758.38;1214218;23;21590;-84
2021/07/21 07:06:10;;;;;;;5.57;1.88;;;;;;;21.06;57.74;101770.78;1209717;23;21496;-85
2021/07/21 07:23:55;;;;;;;3.88;1.70;;;;;;;21.49;59.42;101778.38;3513870;23;20467;-74
2021/07/21 07:26:22;;;;;;;6.20;2.28;;;;;;;21.54;60.20;101780.75;3566183;40;20063;-74
2021/07/21 07:28:50;;;;;;;5.90;2.00;;;;;;;21.64;60.65;101789.97;3581292;40;20049;-73
2021/07/21 07:31:17;;;;;;;3.85;1.50;;;;;;;21.71;60.62;101785.22;3580338;40;21025;-74
2021/07/21 07:33:44;;;;;;;5.00;1.83;;;;;;;21.75;60.55;101784.13;3582411;40;20052;-73
2021/07/21 07:36:11;;;;;;;4.45;1.90;;;;;;;21.84;61.44;101786.28;3562999;40;20048;-74
2021/07/21 07:38:39;;;;;;;8.83;1.67;;;;;;;21.93;60.61;101785.81;3578920;40;20088;-74
2021/07/21 07:41:05;;;;;;;5.55;1.85;;;;;;;22.02;61.01;101793.28;3570875;40;20739;-73
2021/07/21 07:43:36;;;;;;;4.43;2.08;;;;;;;22.11;60.70;101799.13;3579848;40;20055;-73
2021/07/21 07:46:05;;;;;;;4.28;1.70;;;;;;;22.20;60.12;101799.47;3568108;40;20186;-73
2021/07/21 07:48:34;;;;;;;5.65;1.80;;;;;;;22.28;60.20;101799.03;3576892;40;20045;-73
2021/07/21 07:51:01;;;;;;;6.85;2.28;;;;;;;22.34;60.80;101796.03;3564826;40;20065;-73
2021/07/21 07:53:28;;;;;;;5.30;1.95;;;;;;;22.39;59.56;101796.66;3580416;40;20133;-73
2021/07/21 07:55:55;;;;;;;6.15;2.17;;;;;;;22.47;59.50;101796.25;3581859;40;21018;-73
2021/07/21 07:58:22;;;;;;;5.78;2.25;;;;;;;22.53;59.42;101794.09;3580068;40;20108;-73
2021/07/21 08:00:49;;;;;;;5.20;2.05;;;;;;;22.61;59.92;101790.13;3579731;40;20150;-73
2021/07/21 08:03:16;;;;;;;5.88;2.53;;;;;;;22.69;60.92;101787.91;3581780;40;20056;-73
2021/07/21 08:05:44;;;;;;;5.43;1.80;;;;;;;22.77;59.91;101799.00;3571135;40;20072;-73
2021/07/21 08:08:11;;;;;;;3.72;1.88;;;;;;;22.82;60.22;101796.94;3580607;40;20067;-73
2021/07/21 08:10:38;;;;;;;3.45;1.55;;;;;;;22.90;59.98;101802.69;3581295;40;20056;-73
2021/07/21 08:13:04;;;;;;;5.45;1.67;;;;;;;22.96;60.04;101797.06;3565759;40;20362;-73
2021/07/21 08:15:31;;;;;;;4.75;2.15;;;;;;;23.01;59.24;101792.31;3576187;40;20051;-74
2021/07/21 08:18:00;;;;;;;3.30;1.38;;;;;;;23.07;59.48;101796.44;3555005;40;20929;-73
2021/07/21 08:20:27;;;;;;;5.45;2.40;;;;;;;23.15;59.81;101795.97;3579149;40;20090;-73
2021/07/21 08:22:53;;;;;;;5.20;2.15;;;;;;;23.23;59.41;101807.06;3575564;40;20087;-73
2021/07/21 08:25:21;;;;;;;5.27;2.17;;;;;;;23.30;59.79;101803.06;3566489;40;20781;-73
2021/07/21 08:27:52;;;;;;;4.70;1.88;;;;;;;23.37;59.50;101796.44;3562424;40;20276;-73
2021/07/21 08:30:19;;;;;;;5.82;2.03;;;;;;;23.42;59.98;101797.03;3567810;40;20474;-73
2021/07/21 08:32:50;;;;;;;4.38;1.70;;;;;;;23.50;59.30;101800.09;3568646;40;20144;-73
2021/07/21 08:35:23;;;;;;;5.20;2.00;;;;;;;23.59;58.76;101792.50;3568485;40;20495;-73
2021/07/21 08:37:50;;;;;;;5.28;2.05;;;;;;;23.61;58.45;101793.25;3561497;40;20086;-74
2021/07/21 08:40:19;;;;;;;3.50;1.70;;;;;;;23.69;58.00;101791.03;3565554;40;20061;-74
2021/07/21 08:42:47;;;;;;;4.25;1.95;;;;;;;23.75;57.81;101798.66;3567984;40;21990;-74
2021/07/21 08:45:15;;;;;;;4.47;1.98;;;;;;;23.80;58.03;101802.75;3561514;40;20744;-74
2021/07/21 08:47:43;;;;;;;;;;;;;;;23.97;55.72;101803.53;3570010;40;20080;-73
2021/07/21 08:50:11;;;;;;;2.90;1.23;;;;;;;23.94;57.09;101799.25;3551978;40;20056;-73
2021/07/21 08:52:38;;;;;;;3.63;1.42;;;;;;;24.00;56.61;101804.19;3567366;40;20060;-73
2021/07/21 08:55:11;;;;;;;5.78;1.80;;;;;;;24.11;55.83;101800.88;3561512;40;20061;-73
2021/07/21 08:57:38;;;;;;;4.90;1.77;;;;;;;24.12;56.97;101807.06;3565695;40;20102;-73
2021/07/21 09:00:13;;;;;;;5.30;2.30;;;;;;;24.21;56.16;101803.81;3566611;40;20139;-73
2021/07/21 09:02:41;;;;;;;4.25;1.67;;;;;;;24.24;55.73;101803.66;3560591;40;20067;-73
2021/07/21 09:05:12;;;;;;;4.60;2.00;;;;;;;24.34;55.88;101807.44;3565975;40;20048;-73
2021/07/21 09:07:39;;;;;;;4.25;1.60;;;;;;;24.38;55.87;101803.66;3561216;40;20065;-73
2021/07/21 09:10:12;;;;;;;3.47;1.63;;;;;;;24.47;55.51;101804.88;3564810;40;20445;-73
2021/07/21 09:12:42;;;;;;;3.63;1.58;;;;;;;24.53;55.34;101805.38;3559269;40;20057;-73
2021/07/21 09:15:12;;;;;;;4.47;1.83;;;;;;;24.62;56.21;101805.72;3565320;40;20077;-73
2021/07/21 09:18:09;;;;;;;4.55;1.90;;;;;;;24.76;54.45;101803.00;3565882;40;20073;-73
2021/07/21 09:20:42;;;;;;;3.35;1.65;;;;;;;24.79;55.01;101808.16;3560338;40;20397;-73
2021/07/21 09:23:10;;;;;;;5.43;2.00;;;;;;;24.85;54.27;101807.75;3559628;40;20065;-73
2021/07/21 09:25:42;;;;;;;3.72;1.73;;;;;;;24.97;54.11;101801.59;3565280;40;20112;-73
2021/07/21 09:28:11;;;;;;;4.85;1.60;;;;;;;25.15;53.90;101804.91;3567006;40;20071;-73
2021/07/21 09:30:46;;;;;;;3.90;1.65;;;;;;;25.45;52.92;101793.97;3568556;40;20099;-73
2021/07/21 09:33:15;;;;;;;3.72;1.65;;;;;;;25.72;51.88;101798.41;3560352;40;20071;-73
2021/07/21 09:35:45;;;;;;;5.75;2.10;;;;;;;26.09;51.58;101802.91;3566187;40;20083;-74
2021/07/21 09:38:15;;;;;;;3.05;1.48;;;;;;;26.44;51.36;101796.88;3561858;40;20053;-74
2021/07/21 09:40:46;;;;;;;4.30;1.88;;;;;;;26.84;49.32;101804.69;3565517;40;20045;-74
2021/07/21 09:43:19;;;;;;;3.05;1.38;;;;;;;27.21;49.53;101801.97;3564027;40;20063;-74
2021/07/21 09:45:47;;;;;;;3.55;1.40;;;;;;;27.52;48.92;101797.81;3558172;40;20419;-73
2021/07/21 09:48:15;;;;;;;2.95;1.40;;;;;;;27.89;49.01;101798.53;3564016;40;20045;-74
2021/07/21 09:50:44;;;;;;;3.70;1.75;;;;;;;28.29;47.25;101795.38;3557411;40;20053;-74
2021/07/21 09:53:14;;;;;;;3.60;1.70;;;;;;;28.70;46.52;101809.03;3564830;40;20092;-74
2021/07/21 09:55:46;;;;;;;4.85;2.20;;;;;;;29.14;45.61;101814.41;3565799;40;20103;-74
2021/07/21 09:58:23;;;;;;;6.30;1.70;;;;;;;29.47;44.59;101810.72;3546362;40;20084;-74
2021/07/21 10:00:50;;;;;;;;;;;;;;;30.04;46.92;101808.53;3565623;40;20055;-74
2021/07/21 10:03:18;;;;;;;4.82;2.15;;;;;;;30.22;42.20;101806.94;3560807;40;19960;-74
2021/07/21 10:06:05;;;;;;;4.65;2.05;;;;;;;30.67;42.88;101801.97;3564672;40;20055;-74
2021/07/21 10:08:34;;;;;;;;;;;;;;;31.18;45.18;101810.84;3563965;40;20053;-74
2021/07/21 10:11:23;;;;;;;3.88;1.95;;;;;;;31.52;42.63;101806.72;3563073;40;19940;-74
2021/07/21 10:13:56;;;;;;;5.43;2.00;;;;;;;31.71;41.31;101808.53;3562903;40;20072;-74
2021/07/21 10:16:33;;;;;;;6.25;2.42;;;;;;;32.17;40.19;101814.94;3562958;40;20115;-74
2021/07/21 10:19:05;;;;;;;5.57;2.30;;;;;;;32.51;40.13;101806.28;3563138;40;20093;-74
2021/07/21 10:21:33;;;;;;;5.10;2.30;;;;;;;32.75;37.26;101814.69;3554450;40;20354;-74
2021/07/21 10:24:01;;;;;;;5.63;2.00;;;;;;;33.07;37.75;101807.91;3563740;40;20175;-74
2021/07/21 10:26:27;;;;;;;4.43;2.10;;;;;;;33.40;37.30;101817.16;3561844;40;20056;-74
2021/07/21 10:28:55;;;;;;;;;;;;;;;34.03;40.27;101810.72;3564031;40;20061;-74
2021/07/21 10:31:23;;;;;;;5.43;2.15;;;;;;;34.16;34.74;101816.50;3566473;40;19944;-74
2021/07/21 10:33:54;;;;;;;6.80;2.78;;;;;;;34.48;34.67;101823.97;3563557;40;20061;-74
2021/07/21 10:36:22;;;;;;;5.85;2.47;;;;;;;34.75;33.27;101822.84;3563838;40;20419;-77
2021/07/21 10:38:49;;;;;;;4.18;1.98;;;;;;;35.02;32.56;101818.19;3562919;40;20060;-75
2021/07/21 10:41:17;;;;;;;4.97;1.95;;;;;;;35.29;32.88;101820.59;3564059;40;20895;-75
2021/07/21 10:43:51;;;;;;;6.53;1.95;;;;;;;35.69;33.69;101821.59;3567107;40;20493;-75
2021/07/21 10:46:48;;;;;;;5.60;2.47;;;;;;;36.11;33.97;101826.78;3559181;40;20108;-75
2021/07/21 10:49:39;;;;;;;7.13;1.90;;;;;;;36.40;33.17;101814.44;3565407;40;20057;-75
2021/07/21 10:55:01;;;;;;;4.82;1.70;;;;;;;36.96;31.69;101814.34;3553315;40;20076;-75
2021/07/21 11:00:30;;;;;;;5.38;2.08;;;;;;;37.59;31.26;101815.84;3568277;40;20164;-77
2021/07/21 11:03:33;;;;;;;5.45;1.98;;;;;;;37.94;31.41;101814.28;3561846;40;20056;-77
2021/07/21 11:06:02;;;;;;;8.07;2.08;;;;;;;38.00;27.49;101812.69;3555330;40;20049;-77
2021/07/21 11:08:30;;;;;;;4.97;1.90;;;;;;;38.25;27.34;101816.81;3562532;40;20079;-77
2021/07/21 11:11:20;;;;;;;6.30;2.28;;;;;;;38.71;29.39;101811.09;3563244;40;20419;-78
2021/07/21 11:13:58;;;;;;;5.20;2.28;;;;;;;38.95;28.82;101812.63;3563379;40;20509;-77
2021/07/21 11:16:41;;;;;;;5.10;1.95;;;;;;;39.12;28.02;101819.50;3561618;40;20084;-77
2021/07/21 11:19:29;;;;;;;4.75;1.67;;;;;;;39.29;29.03;101824.75;3561059;40;20057;-77
2021/07/21 11:22:03;;;;;;;3.30;1.83;;;;;;;39.39;26.55;101815.16;3563303;40;20051;-78
2021/07/21 11:25:01;;;;;;;5.97;2.45;;;;;;;39.76;27.84;101820.50;3552647;40;20069;-76
2021/07/21 11:27:47;;;;;;;4.07;1.90;;;;;;;39.99;26.96;101825.66;3570738;40;20075;-77
2021/07/21 11:30:33;;;;;;;4.15;1.73;;;;;;;40.34;27.01;101821.03;3578373;40;20090;-77
2021/07/21 11:33:50;;;;;;;4.00;1.90;;;;;;;40.64;26.66;101818.84;3577793;40;20052;-77
2021/07/21 11:36:43;;;;;;;3.85;2.00;;;;;;;40.99;25.84;101826.94;3563413;40;20082;-78
2021/07/21 11:39:35;;;;;;;3.95;1.88;;;;;;;41.30;25.73;101823.59;3575474;40;20075;-77
2021/07/21 11:42:06;;;;;;;3.22;1.77;;;;;;;41.50;23.70;101823.59;3575270;40;20070;-77
2021/07/21 11:44:35;;;;;;;3.67;1.75;;;;;;;41.66;22.26;101823.16;3562157;40;20076;-77
2021/07/21 11:47:09;;;;;;;3.72;1.80;;;;;;;41.97;21.95;101817.84;3571985;40;20086;-77
2021/07/21 11:49:36;;;;;;;3.97;1.67;;;;;;;42.15;22.59;101816.31;3562645;40;20569;-77
2021/07/21 11:52:06;;;;;;;4.07;1.40;;;;;;;42.54;23.09;101820.81;3580319;40;20060;-78
2021/07/21 11:54:35;;;;;;;3.05;1.70;;;;;;;42.65;21.37;101819.28;3551766;40;20087;-78
2021/07/21 11:57:06;;;;;;;2.95;1.40;;;;;;;42.86;21.68;101829.91;3577331;40;20336;-78
2021/07/21 11:59:37;;;;;;;4.20;1.80;;;;;;;42.97;21.26;101829.19;3557795;40;20048;-78
2021/07/21 12:02:30;;;;;;;3.85;2.15;;;;;;;43.03;20.32;101821.16;3577455;40;20102;-78
2021/07/21 12:05:00;;;;;;;4.22;2.10;;;;;;;43.19;19.98;101821.47;3562395;40;20079;-78
2021/07/21 12:07:38;;;;;;;9.13;2.00;;;;;;;43.54;21.99;101822.84;3580701;40;20071;-78
2021/07/21 12:10:16;;;;;;;5.40;2.15;;;;;;;43.64;21.16;101826.75;3572727;40;20110;-78
2021/07/21 12:12:44;;;;;;;3.88;1.90;;;;;;;43.67;20.27;101828.22;3564856;40;20056;-78
2021/07/21 12:15:15;;;;;;;5.30;2.03;;;;;;;43.90;20.60;101825.69;3569128;40;20083;-78
2021/07/21 12:17:42;;;;;;;6.40;2.10;;;;;;;43.90;20.19;101825.69;3559458;40;20451;-78
2021/07/21 12:20:15;;;;;;;6.47;2.58;;;;;;;44.06;20.27;101817.88;3579502;40;20523;-76
2021/07/21 12:22:44;;;;;;;4.75;2.03;;;;;;;44.06;20.90;101817.88;3561169;40;20084;-76
2021/07/21 12:25:17;;;;;;;6.40;2.28;;;;;;;44.08;19.93;101812.97;3567898;40;20126;-75
2021/07/21 12:27:46;;;;;;;3.80;2.05;;;;;;;44.09;21.27;101820.16;3560857;40;20690;-74
2021/07/21 12:30:20;;;;;;;4.78;2.05;;;;;;;44.25;21.15;101811.28;3565898;40;20061;-75
2021/07/21 12:32:49;;;;;;;5.38;2.17;;;;;;;44.28;20.20;101816.34;3551818;40;20492;-74
2021/07/21 12:35:25;;;;;;;4.75;2.60;;;;;;;44.50;20.85;101814.75;3562419;40;20250;-75
2021/07/21 12:37:53;;;;;;;8.68;5.68;;;;;;;44.57;20.12;101809.16;3560759;40;20104;-74
2021/07/21 12:40:22;;;;;;;17.13;7.63;;;;;;;44.73;20.48;101813.19;3567084;40;20052;-74
2021/07/21 12:42:54;;;;;;;26.33;16.75;;;;;;;44.96;20.02;101818.75;3564139;40;21243;-74
2021/07/21 12:45:23;;;;;;;46.70;28.42;;;;;;;45.06;19.55;101815.44;3561084;40;20064;-74
2021/07/21 12:47:52;;;;;;;79.03;46.72;;;;;;;45.24;19.92;101814.50;3556563;40;20069;-74
2021/07/21 12:50:31;;;;;;;61.72;35.17;;;;;;;45.52;20.54;101814.66;3564074;40;20085;-74
2021/07/21 12:53:20;;;;;;;55.42;26.95;;;;;;;45.69;20.37;101816.69;3567019;40;20097;-74
2021/07/21 12:55:52;;;;;;;25.20;12.93;;;;;;;45.75;19.53;101824.00;3564255;40;20089;-74
2021/07/21 12:58:22;;;;;;;17.90;9.20;;;;;;;45.82;19.12;101827.47;3556852;40;20064;-75
2021/07/21 13:00:56;;;;;;;14.38;8.70;;;;;;;45.93;19.08;101826.66;3569558;40;20053;-75
2021/07/21 13:03:24;;;;;;;17.67;8.32;;;;;;;45.89;18.72;101817.16;3560566;40;20061;-73
2021/07/21 13:05:54;;;;;;;14.30;8.70;;;;;;;45.86;18.48;101817.63;3553783;40;20090;-74
2021/07/21 13:08:23;;;;;;;9.23;4.63;;;;;;;45.91;18.63;101819.66;3562322;40;20057;-74
2021/07/21 13:11:03;;;;;;;13.30;7.88;;;;;;;46.09;19.17;101810.38;3566194;40;20072;-74
2021/07/21 13:13:33;;;;;;;11.95;6.57;;;;;;;46.08;18.71;101803.16;3567051;40;20364;-74
2021/07/21 13:16:04;;;;;;;10.10;6.07;;;;;;;46.16;18.31;101806.41;3564139;40;20057;-74
2021/07/21 13:18:41;;;;;;;8.35;5.13;;;;;;;46.17;17.86;101812.78;3562257;40;20057;-74
2021/07/21 13:21:35;;;;;;;11.15;7.03;;;;;;;46.38;18.96;101809.31;3565194;40;20056;-74
2021/07/21 13:24:05;;;;;;;15.10;9.50;;;;;;;46.40;18.21;101811.84;3572972;40;20537;-74
2021/07/21 13:26:34;;;;;;;22.08;15.48;;;;;;;46.38;17.85;101814.84;3562377;40;20062;-74
2021/07/21 13:29:04;;;;;;;15.68;9.35;;;;;;;46.45;17.66;101815.56;3572589;40;20060;-74
2021/07/21 13:31:40;;;;;;;18.27;12.07;;;;;;;46.60;18.96;101811.44;3575758;40;20067;-74
2021/07/21 13:34:30;;;;;;;14.00;9.63;;;;;;;46.73;19.43;101811.09;3557306;40;20097;-74
2021/07/21 13:36:58;;;;;;;10.38;6.10;;;;;;;46.69;17.03;101809.91;3575399;40;20068;-74
2021/07/21 13:39:26;;;;;;;13.32;9.25;;;;;;;46.75;17.83;101808.94;3578990;40;20142;-74
2021/07/21 13:41:58;;;;;;;15.88;11.88;;;;;;;46.88;18.43;101811.38;3575977;40;20052;-74
2021/07/21 13:44:28;;;;;;;14.50;10.38;;;;;;;46.81;17.13;101813.47;3576117;40;20059;-74
2021/07/21 13:46:58;;;;;;;11.15;7.20;;;;;;;46.83;18.28;101814.03;3575043;40;20056;-74
2021/07/21 13:49:30;;;;;;;12.75;6.65;;;;;;;46.95;17.97;101814.84;3573611;40;20442;-74
2021/07/21 13:52:02;;;;;;;11.07;7.00;;;;;;;47.06;17.84;101808.38;3563662;40;20297;-74
2021/07/21 13:54:35;;;;;;;8.27;5.10;;;;;;;47.16;17.54;101809.66;3576886;40;20378;-74
2021/07/21 13:57:15;;;;;;;7.10;4.40;;;;;;;47.33;18.13;101810.50;3576123;40;20057;-74
2021/07/21 13:59:44;;;;;;;13.27;8.50;;;;;;;47.28;17.11;101811.25;3559478;40;20307;-74
2021/07/21 14:02:22;;;;;;;9.52;4.68;;;;;;;47.30;17.44;101802.72;3576912;40;20061;-74
2021/07/21 14:04:51;;;;;;;9.30;5.25;;;;;;;47.30;17.41;101805.47;3561734;40;20066;-74
2021/07/21 14:07:18;;;;;;;10.90;6.18;;;;;;;47.33;17.63;101799.41;3573881;40;20420;-74
2021/07/21 14:09:45;;;;;;;9.60;4.97;;;;;;;47.32;17.04;101800.53;3559683;40;20068;-74
2021/07/21 14:12:13;;;;;;;8.23;4.10;;;;;;;47.26;17.08;101798.75;3564641;40;20052;-74
2021/07/21 14:14:41;;;;;;;7.07;3.65;;;;;;;47.19;16.37;101798.06;3574419;40;20417;-74
2021/07/21 14:17:08;;;;;;;6.78;3.20;;;;;;;47.15;16.85;101796.91;3576931;40;20473;-74
2021/07/21 14:19:35;;;;;;;6.85;2.55;;;;;;;47.15;16.97;101802.44;3576114;40;20052;-74
2021/07/21 14:22:03;;;;;;;5.10;2.70;;;;;;;47.15;17.00;101799.69;3577729;40;20791;-74
2021/07/21 14:24:30;;;;;;;5.00;2.42;;;;;;;47.17;17.63;101800.25;3576506;40;20064;-74
2021/07/21 14:26:58;;;;;;;5.93;3.00;;;;;;;47.22;17.10;101797.56;3579426;40;20068;-74
2021/07/21 14:29:25;;;;;;;5.25;2.78;;;;;;;47.29;16.90;101789.94;3579187;40;20129;-74
2021/07/21 14:31:52;;;;;;;5.00;2.90;;;;;;;47.35;16.96;101797.25;3567000;40;20550;-74
2021/07/21 14:34:20;;;;;;;5.30;2.60;;;;;;;47.42;16.92;101792.38;3581054;40;20057;-74
2021/07/21 14:36:47;;;;;;;5.03;2.78;;;;;;;47.50;16.72;101794.72;3576745;40;20039;-74
2021/07/21 14:39:19;;;;;;;5.35;2.58;;;;;;;47.58;17.07;101797.00;3575001;40;20052;-74
2021/07/21 14:41:49;;;;;;;3.75;2.55;;;;;;;47.67;17.27;101794.69;3550007;40;20072;-74
2021/07/21 14:44:17;;;;;;;6.93;3.35;;;;;;;47.69;16.52;101797.19;3577658;40;20094;-74
2021/07/21 14:46:45;;;;;;;5.15;2.80;;;;;;;47.71;16.62;101792.25;3572382;40;20052;-74
2021/07/21 14:49:15;;;;;;;4.25;2.47;;;;;;;47.75;17.33;101796.97;3572886;40;20072;-74
2021/07/21 14:51:43;;;;;;;6.50;2.70;;;;;;;47.69;16.77;101791.66;3577932;40;20052;-74
2021/07/21 14:54:12;;;;;;;3.95;2.60;;;;;;;47.53;17.17;101794.19;3562685;40;20095;-74
2021/07/21 14:56:40;;;;;;;4.80;2.40;;;;;;;47.42;17.62;101794.28;3576316;40;20044;-74
2021/07/21 14:59:07;;;;;;;6.72;2.38;;;;;;;47.40;16.66;101785.38;3565194;40;20341;-74
2021/07/21 15:01:35;;;;;;;7.65;3.10;;;;;;;47.42;17.20;101803.44;3566915;40;20060;-74
2021/07/21 15:04:05;;;;;;;4.90;2.90;;;;;;;47.47;17.05;101786.06;3566619;40;20092;-74
2021/07/21 15:06:32;;;;;;;4.95;2.72;;;;;;;47.55;16.89;101788.38;3578248;40;20084;-74
2021/07/21 15:08:59;;;;;;;4.43;2.72;;;;;;;47.62;16.66;101790.97;3578979;40;20097;-74
2021/07/21 15:11:26;;;;;;;5.32;2.60;;;;;;;47.69;16.94;101786.09;3577105;40;20377;-74
2021/07/21 15:13:53;;;;;;;5.20;2.65;;;;;;;47.80;16.87;101787.91;3576543;40;20100;-74
2021/07/21 15:16:21;;;;;;;5.32;2.42;;;;;;;47.79;16.87;101791.78;3579800;40;20452;-74
2021/07/21 15:18:48;;;;;;;5.32;2.80;;;;;;;47.65;16.86;101784.94;3567241;40;20076;-74
2021/07/21 15:21:16;;;;;;;5.18;2.22;;;;;;;47.55;17.27;101786.47;3549879;40;20431;-74
2021/07/21 15:23:43;;;;;;;4.78;2.35;;;;;;;47.48;16.73;101785.81;3578208;40;20062;-74
2021/07/21 15:26:10;;;;;;;7.60;3.28;;;;;;;47.39;16.84;101783.72;3575909;40;20083;-74
2021/07/21 15:28:36;;;;;;;4.38;2.90;;;;;;;47.17;16.50;101778.13;3580708;40;20059;-74
2021/07/21 15:31:03;;;;;;;6.28;3.00;;;;;;;46.93;16.97;101778.28;3577820;40;20449;-74
2021/07/21 15:33:31;;;;;;;2.90;2.20;;;;;;;46.78;17.62;101778.00;3577308;40;20318;-74
2021/07/21 15:35:59;;;;;;;9.70;2.50;;;;;;;46.71;17.60;101775.41;3559608;40;20055;-75
2021/07/21 15:38:29;;;;;;;5.60;2.55;;;;;;;46.74;17.68;101777.69;3572122;39;20052;-74
2021/07/21 15:41:00;;;;;;;5.25;2.30;;;;;;;46.72;17.31;101770.72;3564136;40;20064;-74
2021/07/21 15:43:28;;;;;;;7.10;2.55;;;;;;;46.71;17.40;101772.66;3576209;40;20063;-74
2021/07/21 15:45:55;;;;;;;5.45;2.28;;;;;;;46.68;17.59;101764.03;3577838;40;20048;-74
2021/07/21 15:48:22;;;;;;;8.60;2.45;;;;;;;46.66;17.29;101766.22;3577975;40;20060;-74
2021/07/21 15:50:50;;;;;;;4.50;2.17;;;;;;;46.67;17.31;101773.41;3577784;40;20339;-74
2021/07/21 15:53:17;;;;;;;8.57;2.72;;;;;;;46.60;17.27;101781.03;3578114;40;20141;-74
2021/07/21 15:55:44;;;;;;;3.65;2.17;;;;;;;46.55;17.31;101771.56;3576409;40;20064;-74
2021/07/21 15:58:12;;;;;;;4.88;2.50;;;;;;;46.53;17.66;101768.19;3579053;40;20579;-74
2021/07/21 16:00:40;;;;;;;4.85;2.35;;;;;;;46.54;16.86;101769.06;3562442;40;20064;-74
2021/07/21 16:03:08;;;;;;;3.63;2.20;;;;;;;46.46;17.58;101770.25;3576098;40;20054;-74
2021/07/21 16:05:36;;;;;;;5.40;2.58;;;;;;;46.43;17.33;101776.25;3566176;40;20053;-74
2021/07/21 16:08:04;;;;;;;4.78;2.17;;;;;;;46.32;17.44;101766.13;3576301;40;20511;-74
2021/07/21 16:10:32;;;;;;;3.35;2.10;;;;;;;46.19;17.48;101770.03;3575945;40;20041;-74
2021/07/21 16:13:01;;;;;;;3.85;2.30;;;;;;;45.94;17.66;101773.09;3553881;40;20076;-74
2021/07/21 16:15:29;;;;;;;3.78;2.00;;;;;;;45.71;17.83;101765.66;3576594;40;20139;-74
2021/07/21 16:17:56;;;;;;;3.47;1.95;;;;;;;45.61;18.45;101770.13;3576537;40;20040;-74
2021/07/21 16:20:23;;;;;;;8.38;2.45;;;;;;;45.51;18.17;101766.06;3577389;40;20091;-75
2021/07/21 16:22:50;;;;;;;4.50;2.30;;;;;;;45.37;18.08;101764.63;3577053;40;20058;-74
2021/07/21 16:25:24;;;;;;;3.78;1.80;;;;;;;45.25;18.51;101755.50;3578436;40;20068;-74
2021/07/21 16:27:51;;;;;;;3.95;1.98;;;;;;;44.97;18.78;101765.31;3563716;40;20090;-74
2021/07/21 16:30:18;;;;;;;4.00;2.40;;;;;;;44.82;18.95;101761.34;3564913;40;20052;-74
2021/07/21 16:32:46;;;;;;;3.63;1.98;;;;;;;44.68;19.00;101760.69;3576502;40;20057;-74
2021/07/21 16:35:14;;;;;;;5.03;2.53;;;;;;;44.56;19.00;101757.91;3564751;40;20091;-74
2021/07/21 16:37:45;;;;;;;4.63;2.20;;;;;;;44.49;19.16;101757.16;3575636;40;20100;-75
2021/07/21 16:40:15;;;;;;;4.25;2.35;;;;;;;44.26;19.77;101753.25;3572633;40;20156;-75
2021/07/21 16:42:41;;;;;;;6.22;2.33;;;;;;;44.08;19.52;101766.19;3574518;40;20067;-75
2021/07/21 16:45:11;;;;;;;3.38;1.80;;;;;;;43.95;19.69;101754.28;3568460;40;20048;-74
2021/07/21 16:47:38;;;;;;;4.95;2.22;;;;;;;43.79;19.94;101754.84;3573166;40;20548;-74
2021/07/21 16:50:09;;;;;;;4.65;2.00;;;;;;;43.69;20.41;101744.38;3576694;40;20141;-74
2021/07/21 16:52:36;;;;;;;5.78;2.42;;;;;;;43.48;20.39;101755.84;3566915;40;20322;-74
2021/07/21 16:55:12;;;;;;;3.45;2.15;;;;;;;43.34;20.32;101760.59;3578147;40;20121;-74
2021/07/21 16:57:42;;;;;;;3.97;2.22;;;;;;;43.07;20.41;101759.19;3576325;40;20119;-74
2021/07/21 17:00:31;;;;;;;5.28;1.75;;;;;;;42.83;20.89;101758.91;3574173;40;20630;-74
2021/07/21 17:02:58;;;;;;;5.15;2.17;;;;;;;42.55;21.17;101758.47;3564578;40;20084;-74
2021/07/21 17:05:28;;;;;;;4.45;2.17;;;;;;;42.29;21.26;101752.09;3572387;40;20056;-74
2021/07/21 17:07:56;;;;;;;5.72;1.83;;;;;;;41.98;21.78;101752.84;3575832;40;20063;-74
2021/07/21 17:10:23;;;;;;;4.95;2.17;;;;;;;41.70;22.33;101750.38;3578561;40;20477;-74
2021/07/21 17:12:52;;;;;;;5.70;2.40;;;;;;;41.43;22.21;101750.44;3577972;40;20092;-74
2021/07/21 17:15:20;;;;;;;5.43;2.28;;;;;;;41.19;22.87;101753.81;3576945;40;20071;-74
2021/07/21 17:17:47;;;;;;;4.03;1.73;;;;;;;41.00;23.14;101751.91;3575643;40;20138;-74
2021/07/21 17:20:35;;;;;;;5.03;1.95;;;;;;;40.84;23.10;101753.97;3564874;40;20062;-74
2021/07/21 17:23:04;;;;;;;4.05;2.03;;;;;;;40.70;23.26;101752.28;3567430;40;20048;-74
2021/07/21 17:25:32;;;;;;;5.07;2.17;;;;;;;40.57;23.70;101746.81;3573505;40;20382;-74
2021/07/21 17:28:19;;;;;;;4.53;2.05;;;;;;;40.41;23.38;101746.09;3566054;40;20145;-73
2021/07/21 17:30:47;;;;;;;3.70;1.90;;;;;;;40.30;23.51;101741.25;3576675;40;20108;-74
2021/07/21 17:33:15;;;;;;;4.03;1.67;;;;;;;40.19;24.31;101747.28;3575889;40;20785;-73
2021/07/21 17:35:42;;;;;;;4.85;1.70;;;;;;;40.02;24.21;101737.72;3575110;40;20068;-73
2021/07/21 17:38:09;;;;;;;3.60;2.05;;;;;;;39.86;24.06;101733.44;3574463;40;20080;-74
2021/07/21 17:40:36;;;;;;;5.00;2.47;;;;;;;39.76;24.14;101739.28;3568392;40;20053;-74
2021/07/21 17:43:04;;;;;;;4.45;2.30;;;;;;;39.66;24.07;101738.81;3576539;40;20056;-74
2021/07/21 17:45:30;;;;;;;6.25;2.50;;;;;;;39.52;24.74;101737.84;3554068;40;20065;-74
2021/07/21 17:48:00;;;;;;;5.28;2.10;;;;;;;39.43;24.62;101741.78;3574010;40;20076;-74
2021/07/21 17:50:29;;;;;;;6.43;2.13;;;;;;;39.37;24.92;101743.44;3570677;40;20064;-74
2021/07/21 17:52:58;;;;;;;9.00;2.50;;;;;;;39.30;24.64;101738.97;3570819;40;20072;-74
2021/07/21 17:55:25;;;;;;;5.13;2.45;;;;;;;39.22;24.89;101742.69;3575689;40;20055;-74
2021/07/21 17:57:53;;;;;;;4.65;2.20;;;;;;;39.19;25.52;101745.84;3577148;40;20080;-74
2021/07/21 18:00:22;;;;;;;5.38;2.40;;;;;;;39.18;25.38;101735.91;3576099;40;20147;-74
2021/07/21 18:02:49;;;;;;;4.43;1.92;;;;;;;39.15;25.17;101741.78;3568379;40;20068;-74